Weather observations for the past three days for
Rogers - Rogers Executive Airport - Carter Field
| Date | Time (cdt) | Wind (mph) | Vis. (mi.) | Weather | Sky Cond. | Temperature (ºF) | Relative Humidity | Wind Chill (°F) | Heat Index (°F) | Pressure | Precipitation (in) | ||||||
|---|---|---|---|---|---|---|---|---|---|---|---|---|---|---|---|---|---|
| Air | Dwpt | 6 hour | altimeter (in) | sea level (mb) | 1 hr | 3 hr | 6 hr | ||||||||||
| Max. | Min. | ||||||||||||||||
| 03 | 09:58 | S 10 | 10.00 | Fair | CLR | 87.1 | 66.9 | 51% | 90 | 30.04 | 1015.3 | ||||||
| 03 | 08:58 | S 8 | 10.00 | Fair | CLR | 82.9 | 69.1 | 63% | 87 | 30.06 | 1015.8 | ||||||
| 03 | 07:58 | SE 8 | 10.00 | Fair | CLR | 78.1 | 69.1 | 74% | 80 | 30.06 | 1015.9 | ||||||
| 03 | 06:58 | SE 6 | 10.00 | Fair | CLR | 75.9 | 69.1 | 81 | 75 | 79% | 77 | 30.04 | 1015.2 | ||||
| 03 | 05:58 | SE 6 | 10.00 | Fair | CLR | 75.9 | 68 | 77% | 77 | 30.03 | 1015.1 | ||||||
| 03 | 04:58 | SE 6 | 10.00 | Fair | CLR | 77 | 68 | 74% | 79 | 30.03 | 1014.8 | ||||||
| 03 | 03:58 | SE 5 | 10.00 | Fair | CLR | 77 | 68 | 74% | 79 | 30.03 | 1014.7 | ||||||
| 03 | 02:58 | SE 6 | 10.00 | Fair | CLR | 79 | 68 | 69% | 81 | 30.02 | 1014.5 | ||||||
| 03 | 01:58 | SE 3 | 10.00 | Fair | CLR | 79 | 68 | 69% | 81 | 30.02 | 1014.4 | ||||||
| 03 | 00:58 | SE 6 | 10.00 | Fair | CLR | 81 | 66.9 | 95 | 81 | 62% | 83 | 30.02 | 1014.3 | ||||
| 02 | 23:58 | SE 5 | 10.00 | Fair | CLR | 82 | 66.9 | 60% | 85 | 30.01 | 1014.1 | ||||||
| 02 | 22:58 | SE 7 | 10.00 | Fair | CLR | 84.9 | 66 | 53% | 87 | 30.01 | 1014.2 | ||||||
| 02 | 21:58 | SE 9 | 9.00 | Fair | CLR | 87.1 | 66.9 | 51% | 90 | 30.01 | 1014.1 | ||||||
| 02 | 20:58 | SE 8 | 10.00 | Fair | CLR | 88 | 66.9 | 50% | 91 | 29.99 | 1013.6 | ||||||
| 02 | 19:58 | SE 8 | 10.00 | Fair | CLR | 91 | 66 | 44% | 94 | 29.97 | 1012.9 | ||||||
| 02 | 18:58 | S 8 | 10.00 | Fair | CLR | 95 | 63 | 100.9 | 93.9 | 35% | 96 | 29.96 | 1012.7 | ||||
| 02 | 17:58 | S 8 | 10.00 | Fair | CLR | 98.1 | 62.1 | 31% | 99 | 29.97 | 1012.8 | ||||||
| 02 | 16:58 | S 9 | 10.00 | A Few Clouds | FEW110 | 98.1 | 63 | 32% | 100 | 29.98 | 1013.1 | ||||||
| 02 | 15:58 | S 9 | 10.00 | Mostly Cloudy | SCT080 BKN100 | 98.1 | 62.1 | 31% | 99 | 29.99 | 1013.4 | ||||||
| 02 | 14:58 | Calm | 10.00 | A Few Clouds | FEW100 | 96.1 | 63 | 34% | 98 | 30.01 | 1014.2 | ||||||
| 02 | 13:58 | Vrbl 6 | 10.00 | Fair | CLR | 98.1 | 64 | 33% | 101 | 30.04 | 1015.2 | ||||||
| 02 | 12:58 | S 10 | 10.00 | Fair | CLR | 95 | 64.9 | 96.1 | 75 | 37% | 98 | 30.07 | 1016.1 | ||||
| 02 | 11:58 | S 10 | 10.00 | Fair | CLR | 93.9 | 66 | 40% | 97 | 30.09 | 1017.0 | ||||||
| 02 | 10:58 | SW 8 | 10.00 | Fair | CLR | 91 | 66 | 44% | 94 | 30.11 | 1017.4 | ||||||
| 02 | 09:58 | SW 8 | 10.00 | Fair | CLR | 89.1 | 66.9 | 48% | 92 | 30.11 | 1017.4 | ||||||
| 02 | 08:58 | S 8 | 10.00 | Fair | CLR | 84.9 | 68 | 57% | 88 | 30.11 | 1017.6 | ||||||
| 02 | 07:58 | SE 5 | 10.00 | Fair | CLR | 80.1 | 68 | 67% | 83 | 30.1 | 1017.4 | ||||||
| 02 | 06:58 | SE 3 | 10.00 | Fair | CLR | 75.9 | 68 | 82 | 75.9 | 77% | 77 | 30.09 | 1016.8 | ||||
| 02 | 05:58 | S 6 | 10.00 | Fair | CLR | 77 | 68 | 74% | 79 | 30.07 | 1016.3 | ||||||
| 02 | 04:58 | SE 7 | 10.00 | Fair | CLR | 78.1 | 66.9 | 69% | 80 | 30.06 | 1015.9 | ||||||
| 02 | 03:58 | S 7 | 10.00 | Fair | CLR | 78.1 | 66.9 | 69% | 80 | 30.06 | 1015.9 | ||||||
| 02 | 02:58 | SE 5 | 10.00 | Fair | CLR | 79 | 66.9 | 67% | 81 | 30.06 | 1015.9 | ||||||
| 02 | 01:58 | SE 6 | 10.00 | Fair | CLR | 80.1 | 66.9 | 64% | 82 | 30.07 | 1016.0 | ||||||
| 02 | 00:58 | S 8 | 10.00 | Fair | CLR | 82 | 66.9 | 95 | 82 | 60% | 85 | 30.06 | 1016.0 | ||||
| 01 | 23:58 | S 7 | 10.00 | Fair | CLR | 82.9 | 66 | 57% | 85 | 30.06 | 1015.7 | ||||||
| 01 | 22:58 | SE 7 | 10.00 | Fair | CLR | 84 | 66 | 55% | 86 | 30.05 | 1015.5 | ||||||
| 01 | 21:58 | SE 7 | 10.00 | Fair | CLR | 86 | 64.9 | 49% | 88 | 30.04 | 1015.1 | ||||||
| 01 | 20:58 | SE 7 | 10.00 | Fair | CLR | 87.1 | 63 | 45% | 88 | 30.01 | 1014.4 | ||||||
| 01 | 19:58 | SE 6 | 10.00 | Fair | CLR | 91 | 62.1 | 38% | 92 | 30 | 1014.0 | ||||||
| 01 | 18:58 | SE 7 | 10.00 | Fair | CLR | 95 | 62.1 | 99 | 91.9 | 34% | 96 | 30.01 | 1014.2 | ||||
| 01 | 17:58 | S 9 | 10.00 | Fair | CLR | 97 | 62.1 | 32% | 98 | 30.02 | 1014.5 | ||||||
| 01 | 16:58 | SE 12 G 21 | 10.00 | A Few Clouds | FEW085 | 97 | 62.1 | 32% | 98 | 30.01 | 1014.2 | ||||||
| 01 | 15:58 | S 8 | 10.00 | A Few Clouds | FEW075 | 99 | 63 | 31% | 101 | 30.03 | 1014.7 | ||||||
| 01 | 14:58 | E 10 | 10.00 | Partly Cloudy | SCT100 | 97 | 64.9 | 35% | 100 | 30.05 | 1015.4 | ||||||
| 01 | 13:58 | NE 7 | 10.00 | Partly Cloudy | SCT070 SCT085 | 97 | 64.9 | 35% | 100 | 30.07 | 1016.1 | ||||||
| 01 | 12:58 | Vrbl 3 | 10.00 | Overcast | BKN070 OVC090 | 93 | 63 | 96.1 | 75 | 37% | 94 | 30.1 | 1017.2 | ||||
| 01 | 11:58 | Vrbl 5 G 16 | 10.00 | Fair | CLR | 95 | 66 | 39% | 98 | 30.12 | 1017.8 | ||||||
| 01 | 10:58 | SW 10 | 10.00 | Partly Cloudy | SCT090 | 91 | 66.9 | 45% | 94 | 30.13 | 1018.3 | ||||||
| 01 | 09:58 | SW 13 | 10.00 | Fair | CLR | 89.1 | 66.9 | 48% | 92 | 30.13 | 1018.3 | ||||||
| 01 | 08:58 | S 7 | 10.00 | Fair | CLR | 86 | 68 | 55% | 89 | 30.13 | 1018.4 | ||||||
| 01 | 07:58 | S 5 | 9.00 | Fair | CLR | 79 | 66.9 | 67% | 81 | 30.12 | 1018.2 | ||||||
| 01 | 06:58 | SE 3 | 10.00 | Fair | CLR | 75 | 66 | 80.1 | 73.9 | 74% | 76 | 30.1 | 1017.4 | ||||
| 01 | 05:58 | SE 5 | 10.00 | Fair | CLR | 75.9 | 66 | 72% | 77 | 30.09 | 1017.0 | ||||||
| 01 | 04:58 | S 5 | 10.00 | Partly Cloudy | SCT095 | 78.1 | 64.9 | 64% | 80 | 30.08 | 1016.5 | ||||||
| 01 | 03:58 | S 5 | 10.00 | Partly Cloudy | SCT090 | 78.1 | 64.9 | 64% | 80 | 30.08 | 1016.4 | ||||||
| 01 | 02:58 | SE 5 | 10.00 | Overcast | OVC090 | 78.1 | 64 | 62% | 80 | 30.07 | 1016.2 | ||||||
| 01 | 01:58 | SE 6 | 10.00 | Fair | CLR | 79 | 63 | 58% | 81 | 30.07 | 1016.3 | ||||||
| 31 | 23:58 | SE 6 | 10.00 | Fair | CLR | 81 | 62.1 | 53% | 82 | 30.06 | 1016.0 | ||||||
| 31 | 22:58 | SE 6 | 10.00 | Fair | CLR | 82.9 | 61 | 48% | 83 | 30.06 | 1015.9 | ||||||
| 31 | 21:58 | SE 8 | 10.00 | Fair | CLR | 86 | 61 | 43% | 86 | 30.06 | 1015.7 | ||||||
| 31 | 20:58 | SE 7 | 10.00 | Fair | CLR | 87.1 | 62.1 | 43% | 88 | 30.04 | 1015.2 | ||||||
| 31 | 19:58 | S 6 | 10.00 | Fair | CLR | 91 | 60.1 | 35% | 91 | 30.02 | 1014.5 | ||||||
| 31 | 17:58 | SE 8 | 10.00 | Mostly Cloudy | BKN095 | 98.1 | 60.1 | 28% | 98 | 30.01 | 1014.2 | ||||||
| 31 | 16:58 | SE 5 | 10.00 | Mostly Cloudy | BKN090 | 98.1 | 59 | 27% | 98 | 30.02 | 1014.4 | ||||||
| 31 | 15:58 | S 7 | 10.00 | Fair | CLR | 99 | 60.1 | 28% | 99 | 30.03 | 1014.7 | ||||||
| 31 | 14:58 | SW 10 G 17 | 10.00 | Partly Cloudy | SCT085 | 99 | 61 | 29% | 100 | 30.05 | 1015.3 | ||||||
| 31 | 13:58 | Vrbl 3 | 10.00 | Fair | CLR | 97 | 60.1 | 29% | 97 | 30.07 | 1016.0 | ||||||
| 31 | 12:58 | SW 9 | 10.00 | Mostly Cloudy | SCT080 BKN090 | 96.1 | 60.1 | 98.1 | 73.9 | 30% | 96 | 30.09 | 1016.9 | ||||
| 31 | 11:58 | SW 12 | 10.00 | A Few Clouds | FEW090 | 93 | 64 | 38% | 95 | 30.11 | 1017.5 | ||||||
| 31 | 10:58 | SW 9 | 10.00 | Fair | CLR | 91.9 | 64.9 | 41% | 94 | 30.11 | 1017.5 | ||||||
| Date | Time (cdt) | Wind (mph) | Vis. (mi.) | Weather | Sky Cond. | Air | Dwpt | Max. | Min. | Relative Humidity | Wind Chill (°F) | Heat Index (°F) | altimeter (in) | sea level (mb) | 1 hr | 3 hr | 6 hr |
| 6 hour | |||||||||||||||||
| Temperature (ºF) | Pressure | Precipitation (in) | |||||||||||||||